Time;durP1;ratioP1;P1;durP2;ratioP2;P2;SDS_P1;SDS_P2;PMS_P1;PMS_P2;Temp;Humidity;BMP_temperature;BMP_pressure;BME280_temperature;BME280_humidity;BME280_pressure;Samples;Min_cycle;Max_cycle;Signal;HPM_P1;HPM_P2
2022/07/12 00:08:00;;;;;;;6.45;2.00;;;31.30;24.80;;;;;;21333548;27;20100;-61
2022/07/12 00:18:02;;;;;;;3.08;1.67;;;31.10;24.80;;;;;;21333154;27;20050;-61
2022/07/12 00:28:03;;;;;;;4.63;2.03;;;30.90;25.00;;;;;;21332990;27;20065;-63
2022/07/12 00:38:05;;;;;;;6.88;2.05;;;30.70;25.00;;;;;;21332728;27;20487;-62
2022/07/12 00:48:06;;;;;;;6.20;1.67;;;30.60;25.30;;;;;;21331765;27;20051;-63
2022/07/12 00:58:08;;;;;;;3.78;1.80;;;30.40;25.70;;;;;;21331825;27;20047;-63
2022/07/12 01:08:12;;;;;;;4.35;1.90;;;30.30;26.70;;;;;;21330395;27;20129;-64
2022/07/12 01:18:15;;;;;;;4.40;1.77;;;30.10;27.10;;;;;;21342124;27;20066;-62
2022/07/12 01:28:18;;;;;;;6.25;2.20;;;30.00;27.70;;;;;;21346133;27;20065;-63
2022/07/12 01:38:22;;;;;;;3.95;2.05;;;29.90;28.60;;;;;;21345311;27;20574;-64
2022/07/12 01:48:24;;;;;;;5.57;1.98;;;29.80;29.10;;;;;;21344174;27;20046;-63
2022/07/12 01:58:27;;;;;;;4.45;1.75;;;29.60;29.30;;;;;;21344204;27;20427;-64
2022/07/12 02:08:30;;;;;;;4.05;2.00;;;29.50;29.60;;;;;;21342436;27;20495;-62
2022/07/12 02:18:33;;;;;;;3.13;1.80;;;29.50;29.60;;;;;;21342389;27;20073;-64
2022/07/12 02:28:35;;;;;;;5.15;2.38;;;29.40;29.50;;;;;;21341532;27;20486;-64
2022/07/12 02:38:37;;;;;;;4.20;1.63;;;29.20;29.40;;;;;;21340127;27;20107;-63
2022/07/12 02:48:39;;;;;;;2.67;1.58;;;29.10;29.40;;;;;;21339745;27;20071;-64
2022/07/12 02:58:41;;;;;;;4.47;1.90;;;29.10;29.10;;;;;;21338877;27;20513;-63
2022/07/12 03:08:43;;;;;;;5.25;2.03;;;29.00;29.20;;;;;;21337360;27;20042;-65
2022/07/12 03:18:45;;;;;;;3.80;1.80;;;28.90;29.40;;;;;;21336788;27;20051;-63
2022/07/12 03:28:47;;;;;;;6.03;1.90;;;28.80;29.00;;;;;;21337197;27;20470;-64
2022/07/12 03:38:49;;;;;;;3.72;1.73;;;28.70;29.00;;;;;;21335384;27;20467;-58
2022/07/12 03:48:51;;;;;;;3.15;1.75;;;28.60;29.00;;;;;;21334233;27;20046;-63
2022/07/12 03:58:53;;;;;;;4.20;1.88;;;28.50;28.70;;;;;;21334504;27;20050;-63
2022/07/12 04:08:55;;;;;;;4.82;1.95;;;28.40;28.80;;;;;;21333203;27;20083;-58
2022/07/12 04:18:57;;;;;;;2.95;1.70;;;28.40;29.00;;;;;;21334485;27;20051;-64
2022/07/12 04:28:59;;;;;;;4.38;1.92;;;28.40;29.10;;;;;;21332900;27;20257;-63
2022/07/12 04:39:01;;;;;;;4.55;2.33;;;28.20;29.40;;;;;;21332060;27;20050;-62
2022/07/12 04:49:05;;;;;;;7.70;2.28;;;28.20;30.00;;;;;;21336888;27;20493;-63
2022/07/12 04:59:07;;;;;;;5.10;2.72;;;28.10;30.40;;;;;;21348811;27;20372;-63
2022/07/12 05:09:09;;;;;;;4.57;1.92;;;28.10;30.90;;;;;;21346916;27;20486;-65
2022/07/12 05:19:10;;;;;;;7.07;2.83;;;28.10;30.60;;;;;;21346866;27;20055;-63
2022/07/12 05:29:12;;;;;;;4.55;2.50;;;28.10;30.70;;;;;;21345508;27;20057;-62
2022/07/12 05:39:14;;;;;;;7.13;3.17;;;27.90;30.80;;;;;;21345960;27;20051;-62
2022/07/12 05:49:16;;;;;;;5.60;2.00;;;28.00;30.80;;;;;;21344334;27;20038;-61
2022/07/12 05:59:18;;;;;;;4.45;2.50;;;28.00;30.40;;;;;;21343006;27;20139;-63
2022/07/12 06:09:20;;;;;;;8.30;2.45;;;28.00;30.90;;;;;;21342038;27;20054;-61
2022/07/12 06:19:23;;;;;;;7.28;2.63;;;28.00;31.10;;;;;;21341368;27;20089;-60
2022/07/12 06:29:25;;;;;;;8.35;3.13;;;28.10;31.00;;;;;;21341074;27;20046;-62
2022/07/12 06:39:26;;;;;;;6.45;2.83;;;28.10;31.40;;;;;;21340367;27;20483;-62
2022/07/12 06:49:28;;;;;;;6.40;2.70;;;28.20;32.50;;;;;;21339254;27;20042;-62
2022/07/12 06:59:30;;;;;;;5.20;2.47;;;28.10;32.90;;;;;;21339230;27;20046;-63
2022/07/12 07:09:33;;;;;;;4.47;2.65;;;28.40;32.70;;;;;;21336035;27;20379;-63
2022/07/12 07:19:36;;;;;;;6.60;1.95;;;29.00;30.40;;;;;;21337101;27;20086;-61
2022/07/12 07:39:59;;;;;;;4.63;2.00;;;30.10;28.50;;;;;;21334245;27;20464;-62
2022/07/12 07:50:00;;;;;;;5.20;2.30;;;30.40;27.70;;;;;;21334437;27;20050;-60
2022/07/12 08:00:03;;;;;;;6.78;2.20;;;30.60;27.90;;;;;;21280725;27;20095;-61
2022/07/12 08:10:05;;;;;;;8.15;2.05;;;31.10;26.90;;;;;;21162359;28;20113;-62
2022/07/12 08:20:07;;;;;;;5.38;2.28;;;31.50;25.70;;;;;;21162822;28;20551;-61
2022/07/12 08:30:11;;;;;;;5.78;2.22;;;31.70;25.50;;;;;;21180127;28;20410;-60
2022/07/12 08:40:12;;;;;;;5.13;1.70;;;31.90;25.00;;;;;;21179023;28;20384;-60
2022/07/12 08:50:19;;;;;;;5.38;1.77;;;31.90;24.70;;;;;;21177929;28;20081;-62
2022/07/12 09:00:21;;;;;;;7.13;2.10;;;32.10;24.30;;;;;;21177920;28;20472;-58
2022/07/12 09:10:22;;;;;;;4.50;1.90;;;32.30;26.00;;;;;;21175997;28;20138;-58
2022/07/12 09:20:34;;;;;;;4.78;1.90;;;32.60;26.10;;;;;;21177080;28;20047;-59
2022/07/12 09:30:46;;;;;;;6.50;1.92;;;32.50;24.40;;;;;;21175291;28;20051;-60
2022/07/12 09:40:48;;;;;;;4.30;2.00;;;32.60;24.30;;;;;;21172644;28;20048;-61
2022/07/12 09:50:51;;;;;;;5.18;2.05;;;33.00;23.80;;;;;;21172625;28;20157;-60
2022/07/12 10:00:53;;;;;;;3.05;2.00;;;33.10;23.60;;;;;;21171811;28;20052;-61
2022/07/12 10:10:55;;;;;;;6.45;2.25;;;33.20;23.20;;;;;;21171029;28;20512;-61
2022/07/12 10:20:57;;;;;;;7.70;1.90;;;33.50;23.10;;;;;;21170489;28;20561;-61
2022/07/12 10:31:06;;;;;;;4.22;1.85;;;33.40;23.10;;;;;;21170714;28;20105;-62
2022/07/12 10:41:24;;;;;;;5.85;1.77;;;33.60;22.40;;;;;;21168445;28;20047;-62
2022/07/12 10:51:25;;;;;;;4.00;2.72;;;33.90;22.60;;;;;;21167860;28;20077;-62
2022/07/12 11:01:32;;;;;;;6.53;2.25;;;33.70;22.70;;;;;;21167146;28;20511;-61
2022/07/12 11:11:43;;;;;;;7.40;2.67;;;34.10;22.00;;;;;;21166762;28;20574;-60
2022/07/12 11:21:45;;;;;;;4.78;1.77;;;34.50;21.80;;;;;;21168292;28;20139;-63
2022/07/12 11:31:48;;;;;;;4.85;2.00;;;34.30;22.20;;;;;;21165845;28;20471;-61
2022/07/12 11:41:57;;;;;;;6.63;2.13;;;34.70;21.40;;;;;;21163992;28;20077;-62
2022/07/12 11:51:59;;;;;;;;;;;34.60;21.50;;;;;;21186937;27;20043;-62
2022/07/12 12:02:11;;;;;;;5.50;2.10;;;34.60;21.60;;;;;;21248387;27;19965;-62
2022/07/12 12:12:16;;;;;;;8.13;3.40;;;34.90;21.20;;;;;;21247701;27;20142;-62
2022/07/12 12:22:33;;;;;;;4.28;1.73;;;35.20;20.90;;;;;;21246758;28;20047;-61
2022/07/12 12:32:45;;;;;;;8.43;2.50;;;35.30;20.50;;;;;;21247101;28;20410;-62
2022/07/12 12:42:48;;;;;;;5.95;2.00;;;35.30;20.60;;;;;;21247317;28;20043;-62
2022/07/12 12:52:50;;;;;;;3.83;2.08;;;35.50;20.60;;;;;;21245845;28;20052;-63
2022/07/12 13:02:51;;;;;;;3.30;1.77;;;35.80;20.10;;;;;;21246229;28;20388;-62
2022/07/12 13:12:53;;;;;;;5.20;2.28;;;36.00;20.20;;;;;;21254083;27;20139;-60
2022/07/12 13:22:56;;;;;;;5.18;2.10;;;35.90;19.80;;;;;;21260485;27;20084;-62
2022/07/12 13:32:58;;;;;;;5.45;2.22;;;36.10;19.40;;;;;;21259820;27;20043;-63
2022/07/12 13:43:00;;;;;;;3.53;1.90;;;36.20;19.50;;;;;;21259451;27;20519;-62
2022/07/12 13:53:02;;;;;;;3.85;2.10;;;36.40;18.20;;;;;;21257671;27;20047;-63
2022/07/12 14:03:03;;;;;;;3.33;1.83;;;36.60;18.80;;;;;;21258440;27;20047;-61
2022/07/12 14:13:06;;;;;;;3.97;2.20;;;36.80;19.00;;;;;;21255966;27;20081;-63
2022/07/12 14:23:09;;;;;;;4.70;2.22;;;36.80;18.40;;;;;;21255210;27;20070;-62
2022/07/12 14:33:11;;;;;;;7.38;2.60;;;36.70;18.70;;;;;;21255579;27;20479;-61
2022/07/12 14:43:14;;;;;;;4.65;2.47;;;37.00;18.30;;;;;;21254939;27;20051;-63
2022/07/12 14:53:15;;;;;;;3.95;2.33;;;37.00;18.50;;;;;;21252278;27;20054;-61
2022/07/12 15:03:17;;;;;;;3.83;2.30;;;37.00;18.40;;;;;;21243811;27;20124;-62
2022/07/12 15:13:18;;;;;;;4.63;2.60;;;37.00;18.20;;;;;;21250559;27;20563;-61
2022/07/12 15:23:20;;;;;;;5.35;3.03;;;37.10;18.20;;;;;;21250439;27;20380;-63
2022/07/12 15:33:24;;;;;;;4.28;2.40;;;37.10;18.50;;;;;;21248891;27;20175;-61
2022/07/12 15:43:26;;;;;;;4.78;2.55;;;37.00;18.10;;;;;;21249516;27;20043;-59
2022/07/12 15:53:28;;;;;;;5.72;2.25;;;37.10;18.30;;;;;;21228705;27;20043;-61
2022/07/12 16:03:30;;;;;;;6.93;2.80;;;37.30;18.20;;;;;;21247373;27;20054;-61
2022/07/12 16:13:32;;;;;;;3.97;3.53;;;37.20;18.00;;;;;;21185860;27;20381;-56
2022/07/12 16:23:34;;;;;;;5.43;2.55;;;37.50;18.00;;;;;;21161995;28;20055;-58
2022/07/12 16:33:36;;;;;;;4.85;2.35;;;37.30;17.80;;;;;;21161184;28;20055;-57
2022/07/12 16:43:39;;;;;;;3.67;3.15;;;37.30;18.40;;;;;;21164452;28;20108;-57
2022/07/12 16:53:41;;;;;;;3.15;2.78;;;37.30;18.80;;;;;;21176757;28;20047;-60
2022/07/12 17:03:43;;;;;;;4.43;2.88;;;37.40;18.70;;;;;;21177578;28;20414;-57
2022/07/12 17:13:44;;;;;;;8.48;4.63;;;37.50;18.30;;;;;;21175324;28;20134;-57
2022/07/12 17:23:46;;;;;;;4.55;3.17;;;37.50;17.90;;;;;;21174536;28;20072;-56
2022/07/12 17:33:50;;;;;;;4.85;2.85;;;37.30;17.90;;;;;;21173431;28;20055;-56
2022/07/12 17:43:53;;;;;;;3.45;3.00;;;37.00;18.50;;;;;;21173979;28;20043;-57
2022/07/12 17:53:56;;;;;;;4.88;2.90;;;;;;;;;;21171031;28;20048;-63
2022/07/12 18:03:58;;;;;;;3.63;3.28;;;;;;;;;;21171727;28;20050;-58
2022/07/12 18:24:21;;;;;;;11.07;6.00;;;36.90;18.00;;;;;;21169125;28;20094;-57
2022/07/12 18:34:22;;;;;;;5.80;3.20;;;36.60;19.10;;;;;;21169975;28;20056;-56
2022/07/12 18:44:24;;;;;;;5.15;3.30;;;36.60;18.30;;;;;;21168583;28;20483;-56
2022/07/12 18:54:26;;;;;;;5.70;3.83;;;36.50;18.90;;;;;;21167756;28;20052;-56
2022/07/12 19:04:28;;;;;;;7.43;4.50;;;36.20;19.30;;;;;;21167091;28;20052;-56
2022/07/12 19:14:31;;;;;;;7.13;4.03;;;36.10;19.50;;;;;;21248840;27;20054;-56
2022/07/12 19:24:32;;;;;;;8.65;5.28;;;35.80;19.80;;;;;;21250382;27;20086;-60
2022/07/12 19:34:34;;;;;;;9.13;5.50;;;35.60;19.80;;;;;;21250055;27;20055;-57
2022/07/12 19:44:36;;;;;;;8.40;4.22;;;35.50;20.00;;;;;;21249128;27;20051;-58
2022/07/12 19:54:37;;;;;;;6.97;5.45;;;35.30;20.60;;;;;;21250172;27;20168;-58
2022/07/12 20:04:39;;;;;;;7.55;5.63;;;35.10;21.00;;;;;;21249226;27;20055;-58
2022/07/12 20:14:42;;;;;;;10.75;6.03;;;34.90;21.50;;;;;;21248041;27;20043;-60
2022/07/12 20:24:45;;;;;;;12.00;7.18;;;34.70;21.60;;;;;;21273985;27;20535;-59
2022/07/12 20:34:46;;;;;;;13.45;7.55;;;34.50;22.30;;;;;;21257817;27;20464;-58
2022/07/12 20:44:48;;;;;;;7.60;5.60;;;34.40;22.30;;;;;;21275162;27;20779;-59
2022/07/12 20:54:49;;;;;;;9.32;6.00;;;34.20;22.40;;;;;;21274042;27;20448;-59
2022/07/12 21:04:50;;;;;;;12.32;6.57;;;34.10;22.30;;;;;;21274858;27;20506;-61
2022/07/12 21:14:52;;;;;;;8.57;6.00;;;33.80;22.50;;;;;;21272968;27;20047;-59
2022/07/12 21:24:53;;;;;;;12.80;6.75;;;33.80;22.70;;;;;;21274042;27;20051;-60
2022/07/12 21:34:55;;;;;;;18.85;8.55;;;33.70;23.20;;;;;;21262511;27;20108;-58
2022/07/12 21:44:56;;;;;;;13.35;7.97;;;33.40;25.20;;;;;;21258970;27;20092;-59
2022/07/12 21:54:57;;;;;;;12.32;6.45;;;33.10;26.00;;;;;;21257502;27;20051;-58
2022/07/12 22:04:59;;;;;;;9.15;6.25;;;32.80;25.40;;;;;;21249207;27;20051;-60
2022/07/12 22:15:00;;;;;;;8.43;6.35;;;32.50;26.10;;;;;;21256717;27;20134;-59
2022/07/12 22:25:03;;;;;;;13.75;10.07;;;32.20;26.30;;;;;;21255735;27;20043;-58
2022/07/12 22:35:04;;;;;;;12.32;8.73;;;31.90;26.60;;;;;;21255384;27;20054;-59
2022/07/12 22:45:06;;;;;;;12.63;7.55;;;31.70;26.40;;;;;;21235678;27;20051;-60
2022/07/12 22:55:08;;;;;;;15.68;9.63;;;31.60;25.90;;;;;;21253900;27;20416;-59
2022/07/12 23:05:09;;;;;;;8.85;7.30;;;31.50;26.50;;;;;;21252563;27;20083;-58
2022/07/12 23:15:11;;;;;;;10.05;7.55;;;31.50;26.40;;;;;;21252953;27;20400;-60
2022/07/12 23:25:12;;;;;;;9.23;7.18;;;31.60;26.60;;;;;;21251134;27;20039;-58
2022/07/12 23:35:14;;;;;;;10.73;8.48;;;31.60;26.20;;;;;;21250204;27;20093;-57
2022/07/12 23:45:15;;;;;;;8.93;7.47;;;31.40;27.00;;;;;;21230969;27;20043;-57
2022/07/12 23:55:17;;;;;;;10.30;6.15;;;31.20;26.10;;;;;;21248178;27;20103;-58
